createdAt,value
2023-04-29T00:00:36.540Z,1005.87
2023-04-29T00:01:36.718Z,1005.83
2023-04-29T00:02:37.204Z,1005.82
2023-04-29T00:03:37.510Z,1005.81
2023-04-29T00:04:37.929Z,1005.81
2023-04-29T00:05:38.129Z,1005.80
2023-04-29T00:06:38.344Z,1005.83
2023-04-29T00:07:38.646Z,1005.75
2023-04-29T00:08:38.969Z,1005.78
2023-04-29T00:09:39.292Z,1005.70
2023-04-29T00:10:39.632Z,1005.70
2023-04-29T00:11:39.948Z,1005.69
2023-04-29T00:12:40.251Z,1005.72
2023-04-29T00:13:40.576Z,1005.65
2023-04-29T00:14:40.971Z,1005.62
2023-04-29T00:15:41.216Z,1005.59
2023-04-29T00:16:41.578Z,1005.53
2023-04-29T00:17:42.017Z,1005.56
2023-04-29T00:18:42.189Z,1005.53
2023-04-29T00:19:42.521Z,1005.55
2023-04-29T00:20:42.839Z,1005.58
2023-04-29T00:21:43.172Z,1005.57
2023-04-29T00:22:43.493Z,1005.61
2023-04-29T00:23:43.828Z,1005.60
2023-04-29T00:24:44.030Z,1005.55
2023-04-29T00:25:44.336Z,1005.53
2023-04-29T00:26:44.692Z,1005.55
2023-04-29T00:27:45.019Z,1005.50
2023-04-29T00:28:45.320Z,1005.45
2023-04-29T00:29:45.648Z,1005.53
2023-04-29T00:30:46.113Z,1005.54
2023-04-29T00:31:46.329Z,1005.48
2023-04-29T00:32:46.554Z,1005.42
2023-04-29T00:33:46.881Z,1005.47
2023-04-29T00:34:47.189Z,1005.45
2023-04-29T00:35:47.512Z,1005.37
2023-04-29T00:36:47.838Z,1005.42
2023-04-29T00:37:48.197Z,1005.38
2023-04-29T00:38:48.392Z,1005.42
2023-04-29T00:39:48.711Z,1005.37
2023-04-29T00:40:49.026Z,1005.34
2023-04-29T00:41:49.354Z,1005.41
2023-04-29T00:42:49.658Z,1005.38
2023-04-29T00:43:49.988Z,1005.39
2023-04-29T00:44:50.278Z,1005.37
2023-04-29T00:45:50.660Z,1005.33
2023-04-29T00:46:50.850Z,1005.36
2023-04-29T00:47:51.200Z,1005.34
2023-04-29T00:48:51.511Z,1005.31
2023-04-29T00:49:51.969Z,1005.36
2023-04-29T00:50:52.115Z,1005.27
2023-04-29T00:51:52.448Z,1005.35
2023-04-29T00:52:52.774Z,1005.32
2023-04-29T00:53:53.060Z,1005.34
2023-04-29T00:54:53.370Z,1005.29
2023-04-29T00:55:53.679Z,1005.32
2023-04-29T00:56:54.045Z,1005.29
2023-04-29T00:57:54.244Z,1005.25
2023-04-29T00:58:54.559Z,1005.28
2023-04-29T00:59:55.075Z,1005.30
2023-04-29T01:00:56.363Z,1005.28
2023-04-29T01:01:55.528Z,1005.34
2023-04-29T01:02:55.756Z,1005.31
2023-04-29T01:03:56.221Z,1005.38
2023-04-29T01:04:56.529Z,1005.36
2023-04-29T01:05:56.672Z,1005.38
2023-04-29T01:06:56.998Z,1005.36
2023-04-29T01:07:57.336Z,1005.36
2023-04-29T01:08:57.611Z,1005.28
2023-04-29T01:09:57.975Z,1005.31
2023-04-29T01:10:58.261Z,1005.32
2023-04-29T01:11:58.602Z,1005.28
2023-04-29T01:12:58.886Z,1005.32
2023-04-29T01:13:59.192Z,1005.29
2023-04-29T01:14:59.600Z,1005.24
2023-04-29T01:15:59.833Z,1005.28
2023-04-29T01:17:00.141Z,1005.25
2023-04-29T01:18:00.495Z,1005.29
2023-04-29T01:19:00.761Z,1005.25
2023-04-29T01:20:01.074Z,1005.27
2023-04-29T01:21:01.520Z,1005.25
2023-04-29T01:22:01.838Z,1005.26
2023-04-29T01:23:02.036Z,1005.23
2023-04-29T01:24:02.329Z,1005.18
2023-04-29T01:25:02.640Z,1005.19
2023-04-29T01:26:02.949Z,1005.20
2023-04-29T01:27:03.276Z,1005.18
2023-04-29T01:28:03.580Z,1005.21
2023-04-29T01:29:03.886Z,1005.26
2023-04-29T01:30:04.178Z,1005.27
2023-04-29T01:31:04.594Z,1005.23
2023-04-29T01:32:04.739Z,1005.28
2023-04-29T01:33:05.048Z,1005.26
2023-04-29T01:34:05.351Z,1005.23
2023-04-29T01:35:05.650Z,1005.27
2023-04-29T01:36:05.982Z,1005.22
2023-04-29T01:37:06.315Z,1005.27
2023-04-29T01:38:06.618Z,1005.21
2023-04-29T01:39:06.908Z,1005.20
2023-04-29T01:40:07.221Z,1005.19
2023-04-29T01:41:07.551Z,1005.20
2023-04-29T01:42:07.881Z,1005.22
2023-04-29T01:43:08.216Z,1005.25
2023-04-29T01:44:08.521Z,1005.25
2023-04-29T01:45:08.858Z,1005.26
2023-04-29T01:46:09.165Z,1005.17
2023-04-29T01:47:09.480Z,1005.24
2023-04-29T01:48:09.785Z,1005.19
2023-04-29T01:49:10.089Z,1005.20
2023-04-29T01:50:10.385Z,1005.21
2023-04-29T01:51:10.703Z,1005.17
2023-04-29T01:52:11.019Z,1005.12
2023-04-29T01:53:11.343Z,1005.16
2023-04-29T01:54:11.661Z,1005.14
2023-04-29T01:55:11.958Z,1005.12
2023-04-29T01:56:12.331Z,1005.05
2023-04-29T01:57:12.606Z,1005.07
2023-04-29T01:58:12.941Z,1005.07
2023-04-29T01:59:13.238Z,1005.09
2023-04-29T02:00:13.557Z,1005.04
2023-04-29T02:01:13.891Z,1005.01
2023-04-29T02:02:14.197Z,1005.00
2023-04-29T02:03:14.553Z,1005.03
2023-04-29T02:04:14.876Z,1005.02
2023-04-29T02:05:15.198Z,1005.02
2023-04-29T02:06:15.508Z,1005.02
2023-04-29T02:07:15.819Z,1005.00
2023-04-29T02:08:16.163Z,1004.99
2023-04-29T02:09:16.464Z,1004.94
2023-04-29T02:10:16.776Z,1004.91
2023-04-29T02:11:17.110Z,1004.94
2023-04-29T02:12:17.419Z,1004.91
2023-04-29T02:13:17.729Z,1004.85
2023-04-29T02:14:18.035Z,1004.90
2023-04-29T02:15:18.352Z,1004.89
2023-04-29T02:16:18.731Z,1004.89
2023-04-29T02:17:19.013Z,1004.86
2023-04-29T02:18:19.319Z,1004.89
2023-04-29T02:19:19.612Z,1004.90
2023-04-29T02:20:19.922Z,1004.92
2023-04-29T02:21:20.252Z,1004.82
2023-04-29T02:22:20.566Z,1004.85
2023-04-29T02:23:20.879Z,1004.90
2023-04-29T02:24:21.183Z,1004.87
2023-04-29T02:25:21.488Z,1004.86
2023-04-29T02:26:21.808Z,1004.89
2023-04-29T02:27:22.136Z,1004.92
2023-04-29T02:28:22.434Z,1004.95
2023-04-29T02:29:22.746Z,1005.00
2023-04-29T02:30:23.062Z,1004.96
2023-04-29T02:31:23.406Z,1005.00
2023-04-29T02:32:23.755Z,1004.97
2023-04-29T02:33:24.014Z,1005.02
2023-04-29T02:34:24.352Z,1005.00
2023-04-29T02:35:24.654Z,1005.01
2023-04-29T02:36:24.992Z,1005.01
2023-04-29T02:37:25.273Z,1004.96
2023-04-29T02:38:25.587Z,1004.93
2023-04-29T02:39:25.912Z,1005.00
2023-04-29T02:40:26.213Z,1004.97
2023-04-29T02:41:26.628Z,1004.99
2023-04-29T02:42:26.870Z,1004.98
2023-04-29T02:43:27.163Z,1004.92
2023-04-29T02:44:27.494Z,1004.94
2023-04-29T02:45:27.776Z,1004.85
2023-04-29T02:46:28.135Z,1004.86
2023-04-29T02:47:28.466Z,1004.89
2023-04-29T02:48:28.777Z,1004.88
2023-04-29T02:49:29.096Z,1004.85
2023-04-29T02:50:29.420Z,1004.88
2023-04-29T02:51:29.736Z,1004.85
2023-04-29T02:52:30.061Z,1004.86
2023-04-29T02:53:30.389Z,1004.86
2023-04-29T02:54:30.681Z,1004.84
2023-04-29T02:55:30.988Z,1004.84
2023-04-29T02:56:31.321Z,1004.86
2023-04-29T02:57:31.623Z,1004.80
2023-04-29T02:58:31.959Z,1004.78
2023-04-29T02:59:32.253Z,1004.78
2023-04-29T03:00:32.573Z,1004.75
2023-04-29T03:01:32.924Z,1004.74
2023-04-29T03:02:33.183Z,1004.78
2023-04-29T03:03:33.569Z,1004.74
2023-04-29T03:04:33.840Z,1004.77
2023-04-29T03:05:34.049Z,1004.73
2023-04-29T03:06:34.387Z,1004.72
2023-04-29T03:07:34.701Z,1004.68
2023-04-29T03:08:35.014Z,1004.72
2023-04-29T03:09:35.354Z,1004.70
2023-04-29T03:10:35.643Z,1004.68
2023-04-29T03:11:35.972Z,1004.67
2023-04-29T03:12:36.314Z,1004.63
2023-04-29T03:13:36.603Z,1004.61
2023-04-29T03:14:36.901Z,1004.67
2023-04-29T03:15:37.222Z,1004.67
2023-04-29T03:16:37.618Z,1004.67
2023-04-29T03:17:37.835Z,1004.70
2023-04-29T03:18:38.137Z,1004.71
2023-04-29T03:19:38.455Z,1004.72
2023-04-29T03:20:38.767Z,1004.69
2023-04-29T03:21:39.075Z,1004.71
2023-04-29T03:22:39.411Z,1004.77
2023-04-29T03:23:39.738Z,1004.77
2023-04-29T03:24:47.843Z,1004.80
2023-04-29T03:25:40.397Z,1004.80
2023-04-29T03:26:40.615Z,1004.77
2023-04-29T03:27:40.972Z,1004.77
2023-04-29T03:28:41.209Z,1004.72
2023-04-29T03:29:41.382Z,1004.73
2023-04-29T03:30:41.748Z,1004.71
2023-04-29T03:31:41.985Z,1004.72
2023-04-29T03:32:42.363Z,1004.74
2023-04-29T03:33:42.648Z,1004.70
2023-04-29T03:34:42.892Z,1004.68
2023-04-29T03:35:43.254Z,1004.69
2023-04-29T03:36:43.487Z,1004.66
2023-04-29T03:37:43.703Z,1004.65
2023-04-29T03:38:44.089Z,1004.62
2023-04-29T03:39:44.283Z,1004.65
2023-04-29T03:40:44.661Z,1004.69
2023-04-29T03:41:44.849Z,1004.63
2023-04-29T03:42:45.262Z,1004.68
2023-04-29T03:43:45.452Z,1004.67
2023-04-29T03:44:45.794Z,1004.69
2023-04-29T03:45:46.295Z,1004.69
2023-04-29T03:46:46.519Z,1004.70
2023-04-29T03:47:46.854Z,1004.71
2023-04-29T03:48:47.175Z,1004.69
2023-04-29T03:49:47.560Z,1004.75
2023-04-29T03:50:47.844Z,1004.70
2023-04-29T03:51:48.190Z,1004.73
2023-04-29T03:52:48.520Z,1004.78
2023-04-29T03:53:48.861Z,1004.73
2023-04-29T03:54:49.193Z,1004.75
2023-04-29T03:55:49.566Z,1004.75
2023-04-29T03:56:49.898Z,1004.75
2023-04-29T03:57:50.126Z,1004.74
2023-04-29T03:58:50.362Z,1004.76
2023-04-29T03:59:51.263Z,1004.72
2023-04-29T04:00:50.985Z,1004.74
2023-04-29T04:01:51.187Z,1004.75
2023-04-29T04:02:51.544Z,1004.73
2023-04-29T04:03:51.817Z,1004.71
2023-04-29T04:04:52.019Z,1004.77
2023-04-29T04:05:52.304Z,1004.79
2023-04-29T04:06:52.526Z,1004.79
2023-04-29T04:07:52.787Z,1004.80
2023-04-29T04:08:53.096Z,1004.79
2023-04-29T04:09:53.887Z,1004.82
2023-04-29T04:10:53.713Z,1004.81
2023-04-29T04:11:53.950Z,1004.77
2023-04-29T04:12:54.187Z,1004.80
2023-04-29T04:13:54.544Z,1004.84
2023-04-29T04:14:54.896Z,1004.81
2023-04-29T04:15:55.179Z,1004.79
2023-04-29T04:16:55.371Z,1004.82
2023-04-29T04:17:55.831Z,1004.77
2023-04-29T04:18:56.016Z,1004.89
2023-04-29T04:19:56.365Z,1004.85
2023-04-29T04:20:56.704Z,1004.86
2023-04-29T04:21:56.931Z,1004.86
2023-04-29T04:22:57.262Z,1004.88
2023-04-29T04:23:57.681Z,1004.90
2023-04-29T04:24:57.897Z,1004.91
2023-04-29T04:25:58.125Z,1004.93
2023-04-29T04:26:58.514Z,1004.91
2023-04-29T04:27:58.780Z,1004.94
2023-04-29T04:28:59.031Z,1004.94
2023-04-29T04:29:59.292Z,1004.98
2023-04-29T04:30:59.573Z,1004.95
2023-04-29T04:31:59.865Z,1004.95
2023-04-29T04:33:00.172Z,1004.97
2023-04-29T04:34:00.572Z,1004.94
2023-04-29T04:35:00.859Z,1004.98
2023-04-29T04:36:01.115Z,1004.89
2023-04-29T04:37:01.356Z,1004.89
2023-04-29T04:38:01.561Z,1004.89
2023-04-29T04:39:01.844Z,1004.86
2023-04-29T04:40:02.076Z,1004.90
2023-04-29T04:41:02.484Z,1004.82
2023-04-29T04:42:02.696Z,1004.84
2023-04-29T04:43:02.925Z,1004.90
2023-04-29T04:44:03.236Z,1004.90
2023-04-29T04:45:03.432Z,1004.92
2023-04-29T04:46:03.789Z,1004.94
2023-04-29T04:47:03.953Z,1004.92
2023-04-29T04:48:04.313Z,1004.93
2023-04-29T04:49:04.479Z,1004.93
2023-04-29T04:50:04.949Z,1004.97
2023-04-29T04:51:05.192Z,1004.95
2023-04-29T04:52:05.440Z,1004.98
2023-04-29T04:53:05.696Z,1004.98
2023-04-29T04:54:05.926Z,1005.04
2023-04-29T04:55:06.160Z,1005.07
2023-04-29T04:56:06.418Z,1005.06
2023-04-29T04:57:06.653Z,1005.10
2023-04-29T04:58:06.916Z,1005.08
2023-04-29T04:59:07.124Z,1005.03
2023-04-29T05:00:07.498Z,1005.04
2023-04-29T05:01:07.783Z,1005.03
2023-04-29T05:02:08.088Z,1005.00
2023-04-29T05:03:08.476Z,1005.04
2023-04-29T05:04:08.744Z,1005.00
2023-04-29T05:05:08.847Z,1005.07
2023-04-29T05:06:09.088Z,1005.05
2023-04-29T05:07:09.321Z,1005.07
2023-04-29T05:08:09.743Z,1005.08
2023-04-29T05:09:09.978Z,1005.03
2023-04-29T05:10:10.203Z,1005.06
2023-04-29T05:11:10.562Z,1005.07
2023-04-29T05:12:10.811Z,1005.06
2023-04-29T05:13:11.050Z,1005.07
2023-04-29T05:14:11.313Z,1005.00
2023-04-29T05:15:11.542Z,1005.07
2023-04-29T05:16:11.820Z,1005.11
2023-04-29T05:17:12.023Z,1005.05
2023-04-29T05:18:12.413Z,1005.11
2023-04-29T05:19:12.691Z,1005.15
2023-04-29T05:20:12.947Z,1005.16
2023-04-29T05:21:14.160Z,1005.16
2023-04-29T05:22:13.495Z,1005.17
2023-04-29T05:23:13.738Z,1005.24
2023-04-29T05:24:13.984Z,1005.20
2023-04-29T05:25:14.220Z,1005.19
2023-04-29T05:26:14.478Z,1005.23
2023-04-29T05:27:14.729Z,1005.19
2023-04-29T05:28:14.960Z,1005.15
2023-04-29T05:29:15.225Z,1005.12
2023-04-29T05:30:15.471Z,1005.13
2023-04-29T05:31:15.799Z,1005.17
2023-04-29T05:32:16.025Z,1005.13
2023-04-29T05:33:16.331Z,1005.17
2023-04-29T05:34:16.685Z,1005.21
2023-04-29T05:35:16.828Z,1005.21
2023-04-29T05:36:17.143Z,1005.18
2023-04-29T05:37:17.398Z,1005.18
2023-04-29T05:38:17.647Z,1005.14
2023-04-29T05:39:17.872Z,1005.20
2023-04-29T05:40:18.143Z,1005.17
2023-04-29T05:41:18.476Z,1005.13
2023-04-29T05:42:18.722Z,1005.15
2023-04-29T05:43:19.043Z,1005.22
2023-04-29T05:44:19.339Z,1005.17
2023-04-29T05:45:19.618Z,1005.18
2023-04-29T05:46:20.720Z,1005.17
2023-04-29T05:47:20.254Z,1005.15
2023-04-29T05:48:20.542Z,1005.21
2023-04-29T05:49:20.812Z,1005.17
2023-04-29T05:50:21.161Z,1005.16
2023-04-29T05:51:21.452Z,1005.19
2023-04-29T05:52:22.518Z,1005.21
2023-04-29T05:53:21.970Z,1005.19
2023-04-29T05:54:22.249Z,1005.28
2023-04-29T05:55:22.548Z,1005.23
2023-04-29T05:56:22.875Z,1005.30
2023-04-29T05:57:23.153Z,1005.31
2023-04-29T05:58:23.485Z,1005.34
2023-04-29T05:59:23.752Z,1005.27
2023-04-29T06:00:24.185Z,1005.29
2023-04-29T06:01:24.419Z,1005.24
2023-04-29T06:02:24.709Z,1005.29
2023-04-29T06:03:25.178Z,1005.37
2023-04-29T06:04:25.352Z,1005.30
2023-04-29T06:05:25.616Z,1005.29
2023-04-29T06:06:25.749Z,1005.28
2023-04-29T06:07:25.975Z,1005.33
2023-04-29T06:08:26.283Z,1005.36
2023-04-29T06:09:28.011Z,1005.36
2023-04-29T06:10:26.835Z,1005.36
2023-04-29T06:11:27.150Z,1005.32
2023-04-29T06:12:27.477Z,1005.38
2023-04-29T06:13:27.819Z,1005.32
2023-04-29T06:14:28.130Z,1005.46
2023-04-29T06:15:28.451Z,1005.35
2023-04-29T06:16:28.789Z,1005.46
2023-04-29T06:17:29.108Z,1005.47
2023-04-29T06:18:29.360Z,1005.40
2023-04-29T06:19:30.378Z,1005.46
2023-04-29T06:20:29.903Z,1005.44
2023-04-29T06:21:30.177Z,1005.48
2023-04-29T06:22:30.437Z,1005.42
2023-04-29T06:23:30.732Z,1005.48
2023-04-29T06:24:30.975Z,1005.48
2023-04-29T06:25:31.295Z,1005.45
2023-04-29T06:26:31.676Z,1005.44
2023-04-29T06:27:31.829Z,1005.49
2023-04-29T06:28:32.099Z,1005.48
2023-04-29T06:29:32.402Z,1005.50
2023-04-29T06:30:32.799Z,1005.53
2023-04-29T06:31:33.726Z,1005.57
2023-04-29T06:32:33.354Z,1005.57
2023-04-29T06:33:33.595Z,1005.56
2023-04-29T06:34:33.874Z,1005.56
2023-04-29T06:35:34.165Z,1005.54
2023-04-29T06:36:34.457Z,1005.56
2023-04-29T06:37:37.059Z,1005.61
2023-04-29T06:38:35.859Z,1005.63
2023-04-29T06:39:35.344Z,1005.65
2023-04-29T06:40:35.681Z,1005.65
2023-04-29T06:41:35.936Z,1005.67
2023-04-29T06:42:36.967Z,1005.59
2023-04-29T06:43:36.562Z,1005.62
2023-04-29T06:44:37.201Z,1005.72
2023-04-29T06:45:37.294Z,1005.69
2023-04-29T06:46:37.504Z,1005.69
2023-04-29T06:47:38.025Z,1005.69
2023-04-29T06:48:38.051Z,1005.72
2023-04-29T06:49:38.448Z,1005.67
2023-04-29T06:50:38.673Z,1005.72
2023-04-29T06:51:38.891Z,1005.73
2023-04-29T06:52:39.259Z,1005.69
2023-04-29T06:53:39.453Z,1005.79
2023-04-29T06:54:39.762Z,1005.76
2023-04-29T06:55:40.118Z,1005.73
2023-04-29T06:56:40.479Z,1005.85
2023-04-29T06:57:40.712Z,1005.78
2023-04-29T06:58:41.041Z,1005.87
2023-04-29T06:59:41.324Z,1005.88
2023-04-29T07:00:41.689Z,1005.87
2023-04-29T07:01:44.296Z,1005.87
2023-04-29T07:02:42.303Z,1005.89
2023-04-29T07:03:42.590Z,1005.93
2023-04-29T07:04:42.737Z,1005.86
2023-04-29T07:05:43.042Z,1005.88
2023-04-29T07:06:43.404Z,1005.91
2023-04-29T07:07:43.581Z,1005.93
2023-04-29T07:08:43.898Z,1005.90
2023-04-29T07:09:44.211Z,1005.95
2023-04-29T07:10:44.545Z,1005.97
2023-04-29T07:11:44.867Z,1006.02
2023-04-29T07:12:45.334Z,1006.01
2023-04-29T07:13:45.446Z,1006.02
2023-04-29T07:14:45.795Z,1005.99
2023-04-29T07:15:45.971Z,1006.07
2023-04-29T07:16:46.302Z,1006.12
2023-04-29T07:17:46.633Z,1006.05
2023-04-29T07:18:46.926Z,1006.10
2023-04-29T07:19:47.203Z,1006.04
2023-04-29T07:20:47.464Z,1006.02
2023-04-29T07:21:47.750Z,1006.09
2023-04-29T07:22:47.994Z,1006.05
2023-04-29T07:23:48.265Z,1006.09
2023-04-29T07:24:48.531Z,1006.11
2023-04-29T07:25:49.523Z,1006.05
2023-04-29T07:26:49.123Z,1006.10
2023-04-29T07:27:49.388Z,1006.15
2023-04-29T07:28:49.671Z,1006.08
2023-04-29T07:29:49.955Z,1006.13
2023-04-29T07:30:50.228Z,1006.09
2023-04-29T07:31:50.499Z,1006.13
2023-04-29T07:32:50.798Z,1006.13
2023-04-29T07:33:51.117Z,1006.12
2023-04-29T07:34:51.733Z,1006.09
2023-04-29T07:35:51.621Z,1006.12
2023-04-29T07:36:51.887Z,1006.11
2023-04-29T07:37:52.109Z,1006.10
2023-04-29T07:38:52.361Z,1006.10
2023-04-29T07:39:52.591Z,1006.13
2023-04-29T07:40:52.966Z,1006.14
2023-04-29T07:41:53.244Z,1006.07
2023-04-29T07:42:53.486Z,1006.14
2023-04-29T07:43:53.773Z,1006.11
2023-04-29T07:44:54.393Z,1006.18
2023-04-29T07:45:54.273Z,1006.21
2023-04-29T07:46:54.495Z,1006.20
2023-04-29T07:47:54.777Z,1006.22
2023-04-29T07:48:55.014Z,1006.22
2023-04-29T07:49:55.282Z,1006.32
2023-04-29T07:50:55.571Z,1006.31
2023-04-29T07:51:55.906Z,1006.35
2023-04-29T07:52:56.155Z,1006.35
2023-04-29T07:53:56.424Z,1006.40
2023-04-29T07:54:56.707Z,1006.39
2023-04-29T07:55:56.967Z,1006.40
2023-04-29T07:56:58.042Z,1006.37
2023-04-29T07:58:00.006Z,1006.48
2023-04-29T07:58:57.798Z,1006.46
2023-04-29T07:59:58.066Z,1006.46
2023-04-29T08:00:58.381Z,1006.39
2023-04-29T08:01:58.637Z,1006.39
2023-04-29T08:02:59.122Z,1006.43
2023-04-29T08:03:59.390Z,1006.44
2023-04-29T08:04:59.947Z,1006.44
2023-04-29T08:05:59.734Z,1006.47
2023-04-29T08:06:59.884Z,1006.36
2023-04-29T08:08:04.807Z,1006.44
2023-04-29T08:09:01.566Z,1006.40
2023-04-29T08:10:00.757Z,1006.41
2023-04-29T08:11:01.026Z,1006.44
2023-04-29T08:12:01.310Z,1006.38
2023-04-29T08:13:01.604Z,1006.41
2023-04-29T08:14:01.916Z,1006.46
2023-04-29T08:15:02.280Z,1006.44
2023-04-29T08:16:02.496Z,1006.47
2023-04-29T08:17:02.713Z,1006.53
2023-04-29T08:18:03.051Z,1006.58
2023-04-29T08:19:03.234Z,1006.56
2023-04-29T08:20:03.535Z,1006.60
2023-04-29T08:21:03.825Z,1006.57
2023-04-29T08:22:04.121Z,1006.58
2023-04-29T08:23:04.378Z,1006.55
2023-04-29T08:24:04.705Z,1006.56
2023-04-29T08:25:04.986Z,1006.57
2023-04-29T08:26:05.236Z,1006.61
2023-04-29T08:27:05.518Z,1006.62
2023-04-29T08:28:05.784Z,1006.64
2023-04-29T08:29:06.105Z,1006.67
2023-04-29T08:30:06.336Z,1006.66
2023-04-29T08:31:06.608Z,1006.65
2023-04-29T08:32:07.024Z,1006.70
2023-04-29T08:33:07.272Z,1006.69
2023-04-29T08:34:07.478Z,1006.70
2023-04-29T08:35:07.814Z,1006.72
2023-04-29T08:36:08.079Z,1006.75
2023-04-29T08:37:08.378Z,1006.76
2023-04-29T08:38:08.679Z,1006.82
2023-04-29T08:39:09.103Z,1006.83
2023-04-29T08:40:09.231Z,1006.82
2023-04-29T08:41:09.503Z,1006.86
2023-04-29T08:42:09.764Z,1006.90
2023-04-29T08:43:10.258Z,1006.86
2023-04-29T08:44:10.378Z,1006.93
2023-04-29T08:45:10.674Z,1006.91
2023-04-29T08:46:11.001Z,1006.98
2023-04-29T08:47:11.210Z,1007.01
2023-04-29T08:48:11.559Z,1006.94
2023-04-29T08:49:11.723Z,1007.08
2023-04-29T08:50:11.982Z,1007.00
2023-04-29T08:51:12.262Z,1007.06
2023-04-29T08:52:12.556Z,1007.04
2023-04-29T08:53:12.790Z,1007.03
2023-04-29T08:54:13.097Z,1007.05
2023-04-29T08:55:13.358Z,1007.11
2023-04-29T08:56:13.624Z,1007.07
2023-04-29T08:57:13.900Z,1007.05
2023-04-29T08:58:14.165Z,1007.05
2023-04-29T08:59:14.449Z,1007.12
2023-04-29T09:00:14.733Z,1007.14
2023-04-29T09:01:15.045Z,1007.07
2023-04-29T09:02:15.325Z,1007.05
2023-04-29T09:03:15.667Z,1007.13
2023-04-29T09:04:15.956Z,1007.08
2023-04-29T09:05:16.200Z,1007.12
2023-04-29T09:06:16.470Z,1007.10
2023-04-29T09:07:16.816Z,1007.15
2023-04-29T09:08:17.184Z,1007.17
2023-04-29T09:09:19.125Z,1007.20
2023-04-29T09:10:17.600Z,1007.19
2023-04-29T09:11:17.959Z,1007.18
2023-04-29T09:12:18.283Z,1007.21
2023-04-29T09:13:18.535Z,1007.24
2023-04-29T09:14:18.831Z,1007.20
2023-04-29T09:15:19.124Z,1007.31
2023-04-29T09:16:19.435Z,1007.26
2023-04-29T09:17:19.677Z,1007.28
2023-04-29T09:18:19.930Z,1007.30
2023-04-29T09:19:20.225Z,1007.27
2023-04-29T09:20:20.567Z,1007.28
2023-04-29T09:21:22.272Z,1007.32
2023-04-29T09:22:30.340Z,1007.34
2023-04-29T09:23:22.661Z,1007.33
2023-04-29T09:24:21.840Z,1007.32
2023-04-29T09:25:22.025Z,1007.40
2023-04-29T09:26:22.523Z,1007.42
2023-04-29T09:27:22.538Z,1007.34
2023-04-29T09:28:22.846Z,1007.45
2023-04-29T09:29:23.188Z,1007.36
2023-04-29T09:30:23.559Z,1007.41
2023-04-29T09:31:23.743Z,1007.42
2023-04-29T09:32:24.110Z,1007.38
2023-04-29T09:33:24.360Z,1007.45
2023-04-29T09:34:24.639Z,1007.36
2023-04-29T09:35:24.919Z,1007.36
2023-04-29T09:36:25.218Z,1007.39
2023-04-29T09:37:25.515Z,1007.45
2023-04-29T09:38:25.786Z,1007.46
2023-04-29T09:39:26.598Z,1007.55
2023-04-29T09:40:26.299Z,1007.57
2023-04-29T09:41:26.573Z,1007.60
2023-04-29T09:42:26.922Z,1007.59
2023-04-29T09:43:27.224Z,1007.63
2023-04-29T09:44:27.424Z,1007.61
2023-04-29T09:45:27.673Z,1007.65
2023-04-29T09:46:28.011Z,1007.70
2023-04-29T09:47:28.244Z,1007.71
2023-04-29T09:48:28.492Z,1007.70
2023-04-29T09:49:28.806Z,1007.74
2023-04-29T09:50:29.089Z,1007.82
2023-04-29T09:51:29.350Z,1007.75
2023-04-29T09:52:29.625Z,1007.80
2023-04-29T09:53:29.939Z,1007.79
2023-04-29T09:54:30.150Z,1007.78
2023-04-29T09:55:30.542Z,1007.80
2023-04-29T09:56:30.787Z,1007.83
2023-04-29T09:57:31.023Z,1007.86
2023-04-29T09:58:31.300Z,1007.88
2023-04-29T09:59:31.578Z,1007.90
2023-04-29T10:00:31.891Z,1007.90
2023-04-29T10:01:32.202Z,1007.94
2023-04-29T10:02:32.524Z,1007.90
2023-04-29T10:03:32.984Z,1007.92
2023-04-29T10:04:33.124Z,1007.91
2023-04-29T10:05:33.407Z,1007.93
2023-04-29T10:06:33.671Z,1007.94
2023-04-29T10:07:33.929Z,1007.93
2023-04-29T10:08:34.215Z,1007.94
2023-04-29T10:09:34.538Z,1008.03
2023-04-29T10:10:34.937Z,1008.01
2023-04-29T10:11:35.054Z,1007.94
2023-04-29T10:12:35.315Z,1008.01
2023-04-29T10:13:35.606Z,1008.01
2023-04-29T10:14:35.876Z,1008.00
2023-04-29T10:15:36.217Z,1008.05
2023-04-29T10:16:36.502Z,1008.02
2023-04-29T10:17:36.776Z,1008.08
2023-04-29T10:18:37.202Z,1008.08
2023-04-29T10:19:37.454Z,1008.08
2023-04-29T10:20:37.738Z,1008.05
2023-04-29T10:21:38.049Z,1008.09
2023-04-29T10:22:38.360Z,1008.05
2023-04-29T10:23:38.645Z,1008.00
2023-04-29T10:24:38.970Z,1008.00
2023-04-29T10:25:39.095Z,1008.07
2023-04-29T10:26:39.441Z,1008.05
2023-04-29T10:27:39.752Z,1008.04
2023-04-29T10:28:40.062Z,1008.08
2023-04-29T10:29:40.349Z,1008.07
2023-04-29T10:30:40.641Z,1008.05
2023-04-29T10:31:40.945Z,1008.06
2023-04-29T10:32:50.306Z,1008.14
2023-04-29T10:33:42.487Z,1008.08
2023-04-29T10:34:41.818Z,1008.07
2023-04-29T10:35:42.845Z,1008.14
2023-04-29T10:36:42.437Z,1008.14
2023-04-29T10:37:42.706Z,1008.14
2023-04-29T10:38:43.028Z,1008.11
2023-04-29T10:39:43.295Z,1008.09
2023-04-29T10:40:43.565Z,1008.04
2023-04-29T10:41:43.849Z,1008.09
2023-04-29T10:42:44.133Z,1008.05
2023-04-29T10:43:44.368Z,1008.08
2023-04-29T10:44:44.669Z,1008.09
2023-04-29T10:45:44.918Z,1008.07
2023-04-29T10:46:45.255Z,1008.05
2023-04-29T10:47:45.529Z,1008.11
2023-04-29T10:48:45.763Z,1008.08
2023-04-29T10:49:46.022Z,1008.06
2023-04-29T10:50:46.263Z,1008.15
2023-04-29T10:51:46.503Z,1008.19
2023-04-29T10:52:46.744Z,1008.10
2023-04-29T10:53:47.005Z,1008.05
2023-04-29T10:54:47.244Z,1008.12
2023-04-29T10:55:47.493Z,1008.15
2023-04-29T10:56:47.709Z,1008.17
2023-04-29T10:57:47.978Z,1008.09
2023-04-29T10:58:48.249Z,1008.19
2023-04-29T10:59:48.533Z,1008.19
2023-04-29T11:00:48.810Z,1008.13
2023-04-29T11:01:49.043Z,1008.18
2023-04-29T11:02:49.337Z,1008.10
2023-04-29T11:03:49.756Z,1008.12
2023-04-29T11:04:50.004Z,1008.12
2023-04-29T11:05:50.126Z,1008.14
2023-04-29T11:06:50.423Z,1008.16
2023-04-29T11:07:50.689Z,1008.16
2023-04-29T11:08:50.989Z,1008.21
2023-04-29T11:09:51.394Z,1008.16
2023-04-29T11:10:51.488Z,1008.13
2023-04-29T11:11:51.741Z,1008.21
2023-04-29T11:12:52.046Z,1008.08
2023-04-29T11:13:52.326Z,1008.12
2023-04-29T11:14:52.813Z,1008.09
2023-04-29T11:15:52.864Z,1008.06
2023-04-29T11:16:53.353Z,1008.08
2023-04-29T11:17:53.528Z,1008.14
2023-04-29T11:18:53.759Z,1008.19
2023-04-29T11:19:54.275Z,1008.11
2023-04-29T11:20:54.263Z,1008.17
2023-04-29T11:21:54.613Z,1008.19
2023-04-29T11:22:54.901Z,1008.23
2023-04-29T11:23:55.256Z,1008.27
2023-04-29T11:24:55.773Z,1008.24
2023-04-29T11:25:55.779Z,1008.25
2023-04-29T11:26:56.059Z,1008.27
2023-04-29T11:27:56.306Z,1008.27
2023-04-29T11:28:56.558Z,1008.27
2023-04-29T11:29:57.303Z,1008.25
2023-04-29T11:30:57.150Z,1008.29
2023-04-29T11:31:57.462Z,1008.35
2023-04-29T11:32:57.859Z,1008.29
2023-04-29T11:33:57.951Z,1008.35
2023-04-29T11:34:58.240Z,1008.33
2023-04-29T11:35:58.507Z,1008.36
2023-04-29T11:36:58.746Z,1008.26
2023-04-29T11:37:58.966Z,1008.34
2023-04-29T11:38:59.220Z,1008.31
2023-04-29T11:39:59.504Z,1008.34
2023-04-29T11:40:59.798Z,1008.36
2023-04-29T11:42:00.034Z,1008.46
2023-04-29T11:43:00.295Z,1008.39
2023-04-29T11:44:00.573Z,1008.37
2023-04-29T11:45:00.835Z,1008.39
2023-04-29T11:46:01.169Z,1008.37
2023-04-29T11:47:01.476Z,1008.39
2023-04-29T11:48:01.816Z,1008.39
2023-04-29T11:49:02.035Z,1008.46
2023-04-29T11:50:02.284Z,1008.48
2023-04-29T11:51:02.545Z,1008.55
2023-04-29T11:52:02.793Z,1008.55
2023-04-29T11:53:03.028Z,1008.46
2023-04-29T11:54:03.293Z,1008.44
2023-04-29T11:55:03.569Z,1008.51
2023-04-29T11:56:03.861Z,1008.51
2023-04-29T11:57:04.094Z,1008.51
2023-04-29T11:58:04.354Z,1008.51
2023-04-29T11:59:04.623Z,1008.47
2023-04-29T12:00:06.082Z,1008.53
2023-04-29T12:01:05.876Z,1008.54
2023-04-29T12:02:05.481Z,1008.63
2023-04-29T12:03:05.919Z,1008.59
2023-04-29T12:04:06.212Z,1008.63
2023-04-29T12:05:06.415Z,1008.61
2023-04-29T12:06:08.311Z,1008.63
2023-04-29T12:07:06.798Z,1008.66
2023-04-29T12:08:07.043Z,1008.71
2023-04-29T12:09:07.366Z,1008.63